Rauris, Austria
Current Conditions -  °F | °C
As of 5:50 AM on Monday 24 Nov 2014 (Local Time) from LOWS Reporting Station
Moderate Fog Moderate Fog  
Wind Chill: 34°   Ceiling: 200
Heat Index: 37°   Visibility: 0.18mi
Dew Point: 36°   Wind: 5mph
Humidity: 93%   Direction: 170°S
Pressure: 30.18"   Gusts: NA
Location:  47.23°N, 12.99°E
Report Text: LOWS 240350Z 17004KT 0300 R15/0650N R33/0600U FG VV002 03/02 Q1022 NOSIG
Loading
Personal Weather Stations






























Interactive Weather Map New forecast layout! Learn more

10-Day Weather Forecast

Advertisements
Track Severe Weather on mobile